createdAt,value
2022-12-18T00:03:04.928Z,29.00
2022-12-18T00:18:07.589Z,29.10
2022-12-18T00:33:09.548Z,37.35
2022-12-18T00:48:11.509Z,30.10
2022-12-18T01:03:16.476Z,27.65
2022-12-18T01:18:18.830Z,28.73
2022-12-18T01:33:20.770Z,29.35
2022-12-18T01:48:22.768Z,25.35
2022-12-18T02:03:24.934Z,25.75
2022-12-18T02:18:36.474Z,24.58
2022-12-18T02:33:40.933Z,22.92
2022-12-18T02:48:43.181Z,21.95
2022-12-18T03:04:02.110Z,25.95
2022-12-18T03:19:10.268Z,26.30
2022-12-18T03:34:23.023Z,26.23
2022-12-18T03:49:33.590Z,25.58
2022-12-18T04:04:38.622Z,31.67
2022-12-18T04:19:40.472Z,42.67
2022-12-18T04:34:42.982Z,75.75
2022-12-18T04:49:44.882Z,78.25
2022-12-18T05:04:46.803Z,62.42
2022-12-18T05:19:48.744Z,80.35
2022-12-18T05:34:50.621Z,74.32
2022-12-18T05:49:52.502Z,77.22
2022-12-18T06:04:54.412Z,83.10
2022-12-18T06:19:56.679Z,78.50
2022-12-18T06:34:58.610Z,74.78
2022-12-18T06:50:00.504Z,65.97
2022-12-18T07:05:07.479Z,72.20
2022-12-18T07:20:12.420Z,63.55
2022-12-18T07:35:14.873Z,60.60
2022-12-18T07:50:17.025Z,63.72
2022-12-18T08:05:18.953Z,70.15
2022-12-18T08:20:20.822Z,66.15
2022-12-18T08:35:22.843Z,67.10
2022-12-18T08:50:24.902Z,65.82
2022-12-18T09:05:26.873Z,77.03
2022-12-18T09:20:31.081Z,76.60
2022-12-18T09:35:32.961Z,72.70
2022-12-18T09:50:40.641Z,72.70
2022-12-18T10:05:51.322Z,73.38
2022-12-18T10:20:57.324Z,73.28
2022-12-18T10:35:59.279Z,74.15
2022-12-18T10:51:10.726Z,71.57
2022-12-18T11:06:17.008Z,74.03
2022-12-18T11:21:19.001Z,71.07
2022-12-18T11:36:22.559Z,76.13
2022-12-18T11:51:43.048Z,64.43
2022-12-18T12:07:03.991Z,66.05
2022-12-18T12:22:14.906Z,60.50
2022-12-18T12:37:39.762Z,70.70
2022-12-18T12:52:46.643Z,59.47
2022-12-18T13:08:00.607Z,64.97
2022-12-18T13:23:03.264Z,67.22
2022-12-18T13:38:27.503Z,64.88
2022-12-18T13:53:35.013Z,65.20
2022-12-18T14:08:41.824Z,70.15
2022-12-18T14:23:44.371Z,73.20
2022-12-18T14:38:55.065Z,76.38
2022-12-18T14:54:02.305Z,73.00
2022-12-18T15:09:24.246Z,73.07
2022-12-18T15:24:31.827Z,70.40
2022-12-18T15:39:33.784Z,83.50
2022-12-18T15:54:54.066Z,70.55
2022-12-18T16:09:57.262Z,84.15
2022-12-18T16:24:59.506Z,86.45
2022-12-18T16:40:01.386Z,85.30
2022-12-18T16:55:04.208Z,71.93
2022-12-18T17:10:07.818Z,79.88
2022-12-18T17:25:10.264Z,88.63
2022-12-18T17:40:12.409Z,88.57
2022-12-18T17:55:14.346Z,88.78
2022-12-18T18:10:16.446Z,93.03
2022-12-18T18:25:18.427Z,89.82
2022-12-18T18:40:21.684Z,123.78
2022-12-18T18:55:25.634Z,92.93
2022-12-18T19:10:29.308Z,101.07
2022-12-18T19:25:40.607Z,89.55
2022-12-18T19:40:44.428Z,75.50
2022-12-18T19:55:46.368Z,80.88
2022-12-18T20:10:50.388Z,64.80
2022-12-18T20:25:57.487Z,64.22
2022-12-18T20:41:02.109Z,64.15
2022-12-18T20:56:13.709Z,55.65
2022-12-18T21:11:38.028Z,61.20
2022-12-18T21:26:46.440Z,61.75
2022-12-18T21:42:07.228Z,68.43
2022-12-18T21:57:11.307Z,63.90
2022-12-18T22:12:34.269Z,69.18
2022-12-18T22:27:36.428Z,48.00
2022-12-18T22:42:38.349Z,45.95
2022-12-18T22:57:41.164Z,47.63
2022-12-18T23:12:49.988Z,44.58
2022-12-18T23:27:52.007Z,45.22
2022-12-18T23:42:53.907Z,40.05
2022-12-18T23:57:55.893Z,36.03
